createdAt,value
2023-05-18T00:03:39.772Z,101254.53
2023-05-18T00:08:41.904Z,101259.72
2023-05-18T00:13:42.499Z,101272.72
2023-05-18T00:18:45.154Z,101280.50
2023-05-18T00:23:49.607Z,101277.91
2023-05-18T00:28:50.299Z,101279.63
2023-05-18T00:33:50.909Z,101288.25
2023-05-18T00:38:52.890Z,101288.22
2023-05-18T00:43:53.528Z,101286.44
2023-05-18T00:48:57.096Z,101295.94
2023-05-18T00:54:01.074Z,101299.41
2023-05-18T00:59:03.758Z,101313.22
2023-05-18T01:04:04.998Z,101308.78
2023-05-18T01:09:10.054Z,101314.81
2023-05-18T01:14:17.062Z,101306.97
2023-05-18T01:19:41.768Z,101313.91
2023-05-18T01:24:49.464Z,101319.06
2023-05-18T01:29:52.942Z,101328.50
2023-05-18T01:34:54.961Z,101331.97
2023-05-18T01:39:56.263Z,101337.09
2023-05-18T01:45:02.833Z,101335.28
2023-05-18T01:50:07.308Z,101332.63
2023-05-18T01:55:11.122Z,101328.91
2023-05-18T02:00:14.150Z,101324.63
2023-05-18T02:05:18.531Z,101330.69
2023-05-18T02:10:19.331Z,101327.22
2023-05-18T02:15:21.686Z,101327.28
2023-05-18T02:20:23.349Z,101335.88
2023-05-18T02:25:25.773Z,101335.75
2023-05-18T02:30:27.755Z,101341.88
2023-05-18T02:35:28.857Z,101342.72
2023-05-18T02:40:29.697Z,101350.53
2023-05-18T02:45:31.778Z,101353.00
2023-05-18T02:50:32.960Z,101355.66
2023-05-18T02:55:33.811Z,101362.50
2023-05-18T03:00:46.697Z,101355.56
2023-05-18T03:05:47.467Z,101364.22
2023-05-18T03:10:48.412Z,101374.53
2023-05-18T03:15:50.968Z,101367.63
2023-05-18T03:20:52.757Z,101362.16
2023-05-18T03:25:54.339Z,101377.00
2023-05-18T03:30:58.808Z,101375.31
2023-05-18T03:36:04.390Z,101380.47
2023-05-18T03:41:05.921Z,101377.69
2023-05-18T03:46:07.937Z,101387.09
2023-05-18T03:51:08.778Z,101392.34
2023-05-18T03:56:09.598Z,101394.94
2023-05-18T04:01:11.585Z,101395.84
2023-05-18T04:06:12.312Z,101400.28
2023-05-18T04:11:13.101Z,101396.81
2023-05-18T04:16:15.328Z,101406.28
2023-05-18T04:21:16.100Z,101414.31
2023-05-18T04:26:22.124Z,101418.75
2023-05-18T04:31:24.089Z,101420.72
2023-05-18T04:36:25.749Z,101413.06
2023-05-18T04:41:26.776Z,101417.47
2023-05-18T04:46:29.594Z,101409.72
2023-05-18T04:51:31.990Z,101420.88
2023-05-18T04:56:33.351Z,101424.41
2023-05-18T05:01:36.443Z,101434.00
2023-05-18T05:06:37.349Z,101422.81
2023-05-18T05:11:38.018Z,101425.34
2023-05-18T05:16:40.633Z,101428.09
2023-05-18T05:21:41.603Z,101430.75
2023-05-18T05:26:42.232Z,101438.72
2023-05-18T05:31:46.324Z,101437.03
2023-05-18T05:36:47.056Z,101428.44
2023-05-18T05:41:47.983Z,101433.69
2023-05-18T05:46:50.110Z,101428.53
2023-05-18T05:51:51.525Z,101430.38
2023-05-18T05:56:53.122Z,101432.16
2023-05-18T06:01:55.173Z,101436.53
2023-05-18T06:06:56.034Z,101435.63
2023-05-18T06:11:57.017Z,101427.94
2023-05-18T06:17:00.910Z,101434.06
2023-05-18T06:22:01.952Z,101443.63
2023-05-18T06:27:08.510Z,101448.88
2023-05-18T06:32:14.933Z,101443.69
2023-05-18T06:37:19.264Z,101458.44
2023-05-18T06:42:20.054Z,101449.75
2023-05-18T06:47:27.406Z,101457.59
2023-05-18T06:52:28.103Z,101460.16
2023-05-18T06:57:28.953Z,101461.78
2023-05-18T07:02:31.549Z,101457.38
2023-05-18T07:07:32.669Z,101447.72
2023-05-18T07:12:33.362Z,101447.66
2023-05-18T07:17:35.397Z,101448.28
2023-05-18T07:22:36.298Z,101454.00
2023-05-18T07:27:36.955Z,101450.63
2023-05-18T07:32:38.964Z,101439.13
2023-05-18T07:37:39.783Z,101436.22
2023-05-18T07:42:41.587Z,101437.00
2023-05-18T07:47:43.679Z,101444.53
2023-05-18T07:52:44.491Z,101445.72
2023-05-18T07:57:45.174Z,101438.94
2023-05-18T08:02:47.490Z,101439.78
2023-05-18T08:07:48.243Z,101442.19
2023-05-18T08:12:48.979Z,101429.78
2023-05-18T08:17:52.254Z,101436.13
2023-05-18T08:22:52.967Z,101435.66
2023-05-18T08:27:53.967Z,101425.56
2023-05-18T08:32:56.384Z,101429.00
2023-05-18T08:37:57.604Z,101424.31
2023-05-18T08:43:04.638Z,101423.06
2023-05-18T08:48:08.785Z,101426.09
2023-05-18T08:53:12.100Z,101420.59
2023-05-18T08:58:18.476Z,101427.84
2023-05-18T09:03:21.886Z,101416.75
2023-05-18T09:08:23.034Z,101422.88
2023-05-18T09:13:24.095Z,101413.94
2023-05-18T09:18:28.239Z,101414.28
2023-05-18T09:23:29.332Z,101415.53
2023-05-18T09:28:36.570Z,101405.59
2023-05-18T09:33:39.813Z,101398.00
2023-05-18T09:38:43.254Z,101398.59
2023-05-18T09:43:44.751Z,101393.25
2023-05-18T09:48:47.934Z,101398.16
2023-05-18T09:53:50.331Z,101393.50
2023-05-18T09:58:50.974Z,101390.28
2023-05-18T10:04:21.568Z,101395.75
2023-05-18T10:09:22.235Z,101389.47
2023-05-18T10:14:25.531Z,101382.66
2023-05-18T10:19:29.188Z,101377.03
2023-05-18T10:24:32.852Z,101376.75
2023-05-18T10:29:34.956Z,101358.91
2023-05-18T10:34:37.937Z,101359.66
2023-05-18T10:39:38.992Z,101361.78
2023-05-18T10:44:41.233Z,101368.34
2023-05-18T10:49:43.992Z,101354.50
2023-05-18T10:54:45.407Z,101346.16
2023-05-18T10:59:48.591Z,101350.84
2023-05-18T11:04:53.286Z,101341.75
2023-05-18T11:09:55.179Z,101328.03
2023-05-18T11:14:57.783Z,101339.97
2023-05-18T11:20:18.249Z,101339.59
2023-05-18T11:25:45.651Z,101332.66
2023-05-18T11:30:48.507Z,101318.28
2023-05-18T11:36:08.125Z,101323.50
2023-05-18T11:41:10.918Z,101315.50
2023-05-18T11:46:19.611Z,101315.53
2023-05-18T11:51:25.039Z,101317.72
2023-05-18T11:56:26.226Z,101311.50
2023-05-18T12:01:27.299Z,101308.38
2023-05-18T12:06:29.490Z,101315.84
2023-05-18T12:11:30.341Z,101301.56
2023-05-18T12:16:33.130Z,101303.59
2023-05-18T12:21:37.849Z,101302.97
2023-05-18T12:26:43.243Z,101302.16
2023-05-18T12:31:44.616Z,101298.72
2023-05-18T12:37:02.019Z,101299.47
2023-05-18T12:42:10.111Z,101295.03
2023-05-18T12:47:11.855Z,101295.13
2023-05-18T12:52:17.021Z,101297.59
2023-05-18T12:57:21.203Z,101293.09
2023-05-18T13:02:29.795Z,101290.53
2023-05-18T13:07:34.374Z,101282.41
2023-05-18T13:12:46.362Z,101288.44
2023-05-18T13:17:58.819Z,101293.72
2023-05-18T13:23:04.823Z,101289.41
2023-05-18T13:28:10.788Z,101284.56
2023-05-18T13:33:12.803Z,101295.03
2023-05-18T13:38:15.996Z,101286.03
2023-05-18T13:43:16.729Z,101286.34
2023-05-18T13:48:18.256Z,101280.50
2023-05-18T13:53:21.138Z,101268.75
2023-05-18T13:58:22.045Z,101272.81
2023-05-18T14:03:24.811Z,101276.44
2023-05-18T14:08:26.986Z,101268.34
2023-05-18T14:13:27.588Z,101264.06
2023-05-18T14:18:28.233Z,101260.22
2023-05-18T14:23:30.375Z,101265.19
2023-05-18T14:28:31.143Z,101266.97
2023-05-18T14:33:33.203Z,101265.69
2023-05-18T14:38:35.544Z,101262.03
2023-05-18T14:43:36.300Z,101248.66
2023-05-18T14:48:37.095Z,101236.50
2023-05-18T14:53:39.069Z,101246.34
2023-05-18T14:58:39.696Z,101244.03
2023-05-18T15:03:40.608Z,101239.00
2023-05-18T15:08:42.709Z,101232.44
2023-05-18T15:13:44.104Z,101231.44
2023-05-18T15:18:44.757Z,101231.19
2023-05-18T15:23:46.725Z,101233.81
2023-05-18T15:28:47.366Z,101234.19
2023-05-18T15:33:47.962Z,101231.38
2023-05-18T15:38:50.153Z,101231.59
2023-05-18T15:43:50.833Z,101233.97
2023-05-18T15:48:54.583Z,101237.94
2023-05-18T15:53:56.854Z,101227.56
2023-05-18T15:58:57.493Z,101215.78
2023-05-18T16:03:58.181Z,101211.50
2023-05-18T16:09:00.136Z,101218.59
2023-05-18T16:14:00.885Z,101209.63
2023-05-18T16:19:02.331Z,101213.44
2023-05-18T16:24:04.782Z,101202.91
2023-05-18T16:29:05.471Z,101200.94
2023-05-18T16:34:06.245Z,101199.72
2023-05-18T16:39:08.176Z,101195.59
2023-05-18T16:44:08.824Z,101202.34
2023-05-18T16:49:09.504Z,101200.44
2023-05-18T16:54:11.449Z,101203.69
2023-05-18T16:59:12.082Z,101203.63
2023-05-18T17:04:12.883Z,101206.13
2023-05-18T17:09:16.368Z,101211.94
2023-05-18T17:14:18.495Z,101209.31
2023-05-18T17:19:19.179Z,101210.53
2023-05-18T17:24:21.263Z,101210.66
2023-05-18T17:29:22.010Z,101209.16
2023-05-18T17:34:22.965Z,101216.09
2023-05-18T17:39:24.947Z,101219.06
2023-05-18T17:44:25.612Z,101221.59
2023-05-18T17:49:26.271Z,101226.16
2023-05-18T17:54:28.253Z,101228.31
2023-05-18T17:59:28.880Z,101227.56
2023-05-18T18:04:29.485Z,101226.69
2023-05-18T18:09:31.434Z,101237.28
2023-05-18T18:14:32.066Z,101234.44
2023-05-18T18:19:32.724Z,101226.16
2023-05-18T18:24:34.788Z,101230.97
2023-05-18T18:29:35.415Z,101227.91
2023-05-18T18:34:36.034Z,101234.22
2023-05-18T18:39:38.054Z,101230.31
2023-05-18T18:44:38.690Z,101239.19
2023-05-18T18:49:39.293Z,101240.00
2023-05-18T18:54:41.243Z,101239.38
2023-05-18T18:59:41.866Z,101234.47
2023-05-18T19:04:42.485Z,101246.06
2023-05-18T19:09:44.474Z,101249.53
2023-05-18T19:14:45.119Z,101259.25
2023-05-18T19:19:45.805Z,101262.16
2023-05-18T19:24:47.769Z,101270.13
2023-05-18T19:29:48.389Z,101280.75
2023-05-18T19:34:49.016Z,101281.81
2023-05-18T19:39:51.032Z,101286.28
2023-05-18T19:44:51.672Z,101289.03
2023-05-18T19:49:52.370Z,101292.50
2023-05-18T19:54:54.480Z,101287.44
2023-05-18T19:59:55.167Z,101298.81
2023-05-18T20:04:55.821Z,101298.03
2023-05-18T20:10:00.124Z,101302.59
2023-05-18T20:15:01.582Z,101294.81
2023-05-18T20:20:04.867Z,101301.97
2023-05-18T20:25:08.299Z,101305.38
2023-05-18T20:30:10.112Z,101303.84
2023-05-18T20:35:10.769Z,101308.28
2023-05-18T20:40:13.499Z,101310.13
2023-05-18T20:45:16.045Z,101317.13
2023-05-18T20:50:16.724Z,101315.50
2023-05-18T20:55:19.075Z,101321.66
2023-05-18T21:00:20.612Z,101320.88
2023-05-18T21:05:23.299Z,101312.22
2023-05-18T21:10:25.550Z,101321.69
2023-05-18T21:15:26.323Z,101319.16
2023-05-18T21:20:27.016Z,101308.84
2023-05-18T21:25:29.670Z,101307.94
2023-05-18T21:30:32.238Z,101313.16
2023-05-18T21:35:33.193Z,101303.63
2023-05-18T21:40:36.223Z,101311.56
2023-05-18T21:45:36.896Z,101312.47
2023-05-18T21:50:37.541Z,101310.69
2023-05-18T21:55:39.625Z,101311.66
2023-05-18T22:00:40.230Z,101300.34
2023-05-18T22:05:44.594Z,101310.78
2023-05-18T22:10:46.776Z,101297.78
2023-05-18T22:15:47.434Z,101294.31
2023-05-18T22:20:48.031Z,101297.84
2023-05-18T22:25:50.206Z,101294.28
2023-05-18T22:30:51.178Z,101289.06
2023-05-18T22:35:51.802Z,101293.38
2023-05-18T22:40:54.138Z,101284.66
2023-05-18T22:45:54.814Z,101289.00
2023-05-18T22:50:55.548Z,101285.50
2023-05-18T22:55:59.167Z,101287.34
2023-05-18T23:00:59.783Z,101282.97
2023-05-18T23:06:02.971Z,101285.69
2023-05-18T23:11:05.748Z,101279.56
2023-05-18T23:16:10.408Z,101294.44
2023-05-18T23:21:11.161Z,101293.56
2023-05-18T23:26:13.113Z,101287.53
2023-05-18T23:31:13.739Z,101282.38
2023-05-18T23:36:18.093Z,101287.63
2023-05-18T23:41:20.608Z,101297.16
2023-05-18T23:46:21.951Z,101289.25
2023-05-18T23:51:22.933Z,101282.25
2023-05-18T23:56:25.845Z,101279.72
